Alamo, Tennessee
Current Conditions -  °F | °C
As of 3:53 PM on Friday 31 Oct 2014 (Local Time) from KMKL Reporting Station
Scattered Clouds Scattered Clouds  
Wind Chill: 53°   Ceiling: Unl
Heat Index: 53°   Visibility: 10mi
Dew Point: 31°   Wind: 25mph
Humidity: 43%   Direction: 340°NNW
Pressure: 30.13"   Gusts: 33mph
Location:  35.78°N, 89.12°W
Report Text: KMKL 312053Z 34022G29KT 10SM FEW050 SCT065 12/M01 A3013 RMK AO2 PK WND 35030/2015 SLP204 T01171006 53012
Loading
Personal Weather Stations






























Interactive Weather Map
Tropical Storm Tracking
New forecast layout! Learn more

10-Day Weather Forecast

Advertisements
Track Severe Weather on mobile